Time;durP1;ratioP1;P1;durP2;ratioP2;P2;SDS_P1;SDS_P2;PMS_P1;PMS_P2;Temp;Humidity;BMP_temperature;BMP_pressure;BME280_temperature;BME280_humidity;BME280_pressure;Samples;Min_cycle;Max_cycle;Signal;HPM_P1;HPM_P2
2021/07/22 17:10:44;;;;;;;;;;;;;;;27.24;51.30;101920.19;4946847;28;20066;-68
2021/07/22 17:13:10;;;;;;;8.93;6.15;;;;;;;27.31;51.42;101929.03;4937416;28;20295;-69
2021/07/22 17:15:35;;;;;;;7.82;6.13;;;;;;;27.34;51.40;101920.50;4939634;28;20477;-69
2021/07/22 17:18:01;;;;;;;8.05;6.45;;;;;;;27.35;51.37;101918.63;4930978;28;20035;-69
2021/07/22 17:20:27;;;;;;;10.85;6.82;;;;;;;27.35;51.61;101911.38;4914497;29;20036;-68
2021/07/22 17:22:52;;;;;;;14.95;8.25;;;;;;;27.36;51.54;101918.41;4942969;28;20377;-69
2021/07/22 17:25:19;;;;;;;10.77;7.40;;;;;;;27.36;51.67;101914.91;4931284;28;20058;-68
2021/07/22 17:27:45;;;;;;;27.98;16.60;;;;;;;27.37;52.00;101911.97;4932059;28;20413;-68
2021/07/22 17:30:13;;;;;;;15.43;10.07;;;;;;;27.38;51.74;101919.00;4934439;28;20043;-68
2021/07/22 17:32:38;;;;;;;16.05;9.45;;;;;;;27.39;51.75;101920.66;4933279;28;20035;-68
2021/07/22 17:35:04;;;;;;;24.42;11.23;;;;;;;27.38;51.59;101910.94;4934847;28;20035;-69
2021/07/22 17:37:30;;;;;;;26.48;11.75;;;;;;;27.40;51.57;101914.22;4941806;28;20039;-68
2021/07/22 17:39:55;;;;;;;27.25;13.13;;;;;;;27.41;51.73;101909.66;4916367;28;20032;-68
2021/07/22 17:42:21;;;;;;;20.73;9.82;;;;;;;27.41;51.68;101918.56;4937640;28;20039;-68
2021/07/22 17:44:46;;;;;;;15.23;9.60;;;;;;;27.43;51.49;101913.78;4949882;28;20164;-68
2021/07/22 17:47:12;;;;;;;17.67;9.95;;;;;;;27.44;51.66;101912.72;4945913;28;20035;-69
2021/07/22 17:49:37;;;;;;;17.42;10.23;;;;;;;27.44;51.91;101912.72;4934348;28;20070;-67
2021/07/22 17:52:03;;;;;;;17.25;9.40;;;;;;;27.45;52.10;101911.66;4935259;28;20047;-67
2021/07/22 17:54:29;;;;;;;14.70;9.05;;;;;;;27.45;52.14;101903.59;4941235;28;20044;-68
2021/07/22 17:56:54;;;;;;;12.70;8.73;;;;;;;27.45;52.24;101908.97;4935733;28;20044;-68
2021/07/22 17:59:20;;;;;;;12.90;8.85;;;;;;;27.45;52.35;101906.28;4933452;28;20050;-68
2021/07/22 18:01:45;;;;;;;12.85;9.68;;;;;;;27.47;52.52;101905.25;4933777;29;20063;-67
2021/07/22 18:04:16;;;;;;;12.30;9.80;;;;;;;27.45;52.28;101900.88;4951917;28;20038;-68
2021/07/22 18:06:42;;;;;;;13.20;9.63;;;;;;;27.45;52.31;101906.28;4941761;28;20035;-68
2021/07/22 18:09:07;;;;;;;12.00;9.20;;;;;;;27.45;52.12;101902.75;4935249;28;20093;-68
2021/07/22 18:11:33;;;;;;;13.25;9.68;;;;;;;27.44;51.99;101912.72;4934740;28;20036;-68
2021/07/22 18:13:58;;;;;;;11.80;10.38;;;;;;;27.44;52.12;101907.34;4940479;28;20046;-68
2021/07/22 18:16:24;;;;;;;14.27;10.75;;;;;;;27.44;52.07;101906.50;4921071;29;20084;-68
2021/07/22 18:18:49;;;;;;;12.60;11.05;;;;;;;27.42;52.12;101903.22;4936481;28;20051;-67
2021/07/22 18:21:15;;;;;;;12.90;11.20;;;;;;;27.42;52.22;101914.00;4933085;28;20035;-68
2021/07/22 18:23:45;;;;;;;14.85;12.10;;;;;;;27.42;52.27;101901.34;4938554;28;20388;-68
2021/07/22 18:26:11;;;;;;;12.10;9.82;;;;;;;27.42;52.20;101908.59;4948633;28;20465;-68
2021/07/22 18:28:37;;;;;;;12.32;10.13;;;;;;;27.43;52.29;101905.69;4948460;28;20055;-67
2021/07/22 18:31:10;;;;;;;13.20;10.30;;;;;;;27.42;52.36;101904.03;4948065;28;20098;-68
2021/07/22 18:34:18;;;;;;;15.18;10.43;;;;;;;27.36;52.60;101904.94;4948706;28;20027;-67
2021/07/22 18:37:01;;;;;;;12.20;9.85;;;;;;;27.40;52.61;101908.00;4872037;29;20041;-66
2021/07/22 18:39:26;;;;;;;15.68;10.68;;;;;;;27.42;52.64;101906.72;4868572;29;20048;-66
2021/07/22 18:41:53;;;;;;;15.85;11.20;;;;;;;27.42;52.50;101916.69;4912849;28;20051;-71
2021/07/22 18:44:19;;;;;;;14.23;11.10;;;;;;;27.40;52.64;101906.13;4932973;28;20121;-66
2021/07/22 18:46:44;;;;;;;13.45;11.00;;;;;;;27.40;52.64;101911.53;4949935;28;20083;-66
2021/07/22 18:49:10;;;;;;;18.70;11.20;;;;;;;27.40;52.84;101911.53;4950990;28;20061;-66
2021/07/22 18:51:36;;;;;;;16.88;10.82;;;;;;;27.41;53.06;101906.97;4950993;28;20035;-65
2021/07/22 18:54:02;;;;;;;14.63;11.32;;;;;;;27.41;52.96;101915.03;4934461;29;20039;-65
2021/07/22 18:56:27;;;;;;;17.08;12.02;;;;;;;27.42;53.46;101914.81;4950393;28;20042;-66
2021/07/22 18:58:53;;;;;;;15.63;12.43;;;;;;;27.43;53.35;101921.84;4950746;28;20195;-67
2021/07/22 19:01:18;;;;;;;13.25;10.48;;;;;;;27.43;53.22;101908.38;4947781;28;20168;-66
2021/07/22 19:03:44;;;;;;;13.55;10.25;;;;;;;27.43;53.41;101903.00;4937628;28;20039;-66
2021/07/22 19:06:09;;;;;;;16.52;11.45;;;;;;;27.44;53.46;101912.72;4951040;28;20572;-67
2021/07/22 19:08:35;;;;;;;17.27;12.05;;;;;;;27.44;53.51;101910.03;4951036;28;20464;-66
2021/07/22 19:11:02;;;;;;;15.75;10.55;;;;;;;27.46;53.86;101912.53;4940545;28;20385;-66
2021/07/22 19:13:28;;;;;;;14.70;10.65;;;;;;;27.48;53.93;101904.22;4950848;28;20055;-65
2021/07/22 19:15:53;;;;;;;16.98;10.75;;;;;;;27.50;54.01;101910.19;4951011;28;20074;-67
2021/07/22 19:18:19;;;;;;;12.75;11.07;;;;;;;27.52;54.20;101908.09;4950279;28;20473;-67
2021/07/22 19:20:44;;;;;;;15.38;12.13;;;;;;;27.53;54.25;101920.53;4944362;28;20031;-66
2021/07/22 19:23:12;;;;;;;17.73;13.40;;;;;;;27.53;54.54;101921.34;4940219;28;20050;-67
2021/07/22 19:25:38;;;;;;;17.27;12.35;;;;;;;27.54;54.54;101914.09;4949888;28;20031;-67
2021/07/22 19:28:03;;;;;;;17.15;11.77;;;;;;;27.55;54.66;101918.44;4952171;28;20527;-66
2021/07/22 19:30:29;;;;;;;13.60;12.05;;;;;;;27.56;54.95;101909.28;4932288;29;20534;-66
2021/07/22 19:32:55;;;;;;;16.80;12.88;;;;;;;27.58;54.85;101915.28;4917681;28;20039;-67
2021/07/22 19:35:21;;;;;;;16.15;10.77;;;;;;;27.58;54.63;101917.97;4933034;29;20093;-66
2021/07/22 19:37:46;;;;;;;12.25;10.30;;;;;;;27.57;54.70;101910.94;4953074;28;20489;-66
2021/07/22 19:40:14;;;;;;;13.80;10.07;;;;;;;27.58;54.69;101907.19;4937621;28;20473;-66
2021/07/22 19:42:40;;;;;;;13.82;10.93;;;;;;;27.59;54.75;101915.06;4931552;28;20048;-66
2021/07/22 19:45:08;;;;;;;16.15;11.20;;;;;;;27.60;54.79;101899.72;4933710;28;20404;-66
2021/07/22 19:47:34;;;;;;;12.80;10.00;;;;;;;27.61;54.76;101901.34;4932664;28;20171;-68
2021/07/22 19:50:00;;;;;;;14.50;11.38;;;;;;;27.60;54.99;101900.53;4931347;28;20035;-65
2021/07/22 19:52:26;;;;;;;15.23;11.27;;;;;;;27.62;54.82;101903.03;4930693;28;20050;-66
2021/07/22 19:54:51;;;;;;;13.82;10.43;;;;;;;27.62;54.89;101903.03;4928329;28;20043;-66
2021/07/22 19:57:17;;;;;;;13.07;10.60;;;;;;;27.64;54.65;101900.97;4935622;28;20142;-66
2021/07/22 19:59:42;;;;;;;13.20;10.23;;;;;;;27.65;54.79;101902.59;4930643;28;20426;-67
2021/07/22 20:02:08;;;;;;;14.35;11.80;;;;;;;27.65;55.09;101908.00;4930462;28;20472;-66
2021/07/22 20:04:33;;;;;;;16.63;12.68;;;;;;;27.66;54.80;101910.47;4931421;28;20039;-68
2021/07/22 20:06:59;;;;;;;16.48;12.95;;;;;;;27.65;54.83;101908.81;4933741;28;20138;-66
2021/07/22 20:09:24;;;;;;;17.13;12.98;;;;;;;27.65;55.13;101908.00;4929592;28;20122;-66
2021/07/22 20:11:50;;;;;;;16.52;12.52;;;;;;;27.64;55.06;101909.88;4929779;28;20075;-66
2021/07/22 20:14:15;;;;;;;15.55;11.80;;;;;;;27.64;55.03;101911.75;4930984;28;20036;-66
2021/07/22 20:16:41;;;;;;;16.27;12.45;;;;;;;27.64;55.08;101909.03;4931932;28;20043;-68
2021/07/22 20:19:06;;;;;;;15.60;11.85;;;;;;;27.62;55.06;101906.53;4930174;28;20449;-69
2021/07/22 20:21:32;;;;;;;16.17;12.85;;;;;;;27.64;55.26;101900.97;4931048;28;20042;-68
2021/07/22 20:23:57;;;;;;;16.27;11.68;;;;;;;27.64;55.00;101904.47;4928711;28;20058;-67
2021/07/22 20:26:23;;;;;;;17.70;12.48;;;;;;;27.65;55.10;101897.22;4931644;28;20404;-68
2021/07/22 20:28:48;;;;;;;16.70;13.20;;;;;;;27.65;55.18;101905.31;4929640;28;20396;-68
2021/07/22 20:31:14;;;;;;;19.40;13.95;;;;;;;27.64;55.10;101901.78;4930149;28;20031;-67
2021/07/22 20:33:39;;;;;;;19.67;13.48;;;;;;;27.62;55.08;101898.47;4928802;28;20050;-67
2021/07/22 20:36:05;;;;;;;17.17;13.48;;;;;;;27.61;55.17;101904.03;4931588;28;20039;-67
2021/07/22 20:38:30;;;;;;;17.15;12.70;;;;;;;27.61;55.26;101902.16;4928534;28;20474;-66
2021/07/22 20:40:55;;;;;;;16.55;11.50;;;;;;;27.62;55.08;101900.34;4926855;28;20031;-66
2021/07/22 20:43:21;;;;;;;15.57;11.60;;;;;;;27.64;55.29;101900.97;4934065;28;20038;-64
2021/07/22 20:45:47;;;;;;;14.82;11.63;;;;;;;27.64;55.15;101890.19;4931653;28;20028;-67
2021/07/22 20:48:13;;;;;;;14.70;11.90;;;;;;;27.65;55.30;101894.50;4930190;28;21131;-71
2021/07/22 20:50:41;;;;;;;13.63;11.25;;;;;;;27.66;55.12;101905.06;4931281;28;20038;-67
2021/07/22 20:53:06;;;;;;;14.73;10.80;;;;;;;27.67;55.29;101901.31;4937220;28;20063;-67
2021/07/22 20:55:32;;;;;;;12.73;10.25;;;;;;;27.69;55.33;101903.78;4916384;29;20111;-66
2021/07/22 20:57:57;;;;;;;14.32;10.23;;;;;;;27.71;55.32;101905.22;4932924;28;20118;-67
2021/07/22 21:00:23;;;;;;;16.60;12.63;;;;;;;27.72;55.33;101900.66;4916568;29;20070;-65
2021/07/22 21:02:48;;;;;;;16.23;12.18;;;;;;;27.73;55.39;101896.91;4931292;28;20043;-65
2021/07/22 21:05:14;;;;;;;15.32;11.80;;;;;;;27.74;55.33;101895.84;4930626;28;20039;-67
2021/07/22 21:07:40;;;;;;;15.43;12.18;;;;;;;27.76;55.37;101907.22;4929278;28;20138;-66
2021/07/22 21:10:06;;;;;;;13.35;11.95;;;;;;;27.76;55.27;101899.13;4927342;28;20074;-65
2021/07/22 21:12:32;;;;;;;16.95;12.55;;;;;;;27.77;55.36;101908.03;4930770;28;20063;-66
2021/07/22 21:14:57;;;;;;;17.75;13.00;;;;;;;27.76;55.26;101907.22;4933302;28;20071;-66
2021/07/22 21:17:23;;;;;;;14.15;12.02;;;;;;;27.77;55.26;101898.09;4916162;29;20043;-66
2021/07/22 21:19:48;;;;;;;16.85;12.38;;;;;;;27.78;55.30;101901.63;4930287;28;20119;-67
2021/07/22 21:22:14;;;;;;;13.95;11.55;;;;;;;27.78;55.31;101891.69;4929234;29;20061;-66
2021/07/22 21:24:39;;;;;;;13.65;11.10;;;;;;;27.79;55.26;101892.50;4932886;29;20078;-65
2021/07/22 21:27:05;;;;;;;13.50;11.32;;;;;;;27.79;55.53;101892.50;4933946;29;20481;-66
2021/07/22 21:29:30;;;;;;;14.32;11.52;;;;;;;27.81;55.39;101896.59;4935267;28;20445;-65
2021/07/22 21:31:56;;;;;;;21.10;15.43;;;;;;;27.81;55.02;101890.41;4934230;29;20131;-69
2021/07/22 21:34:21;;;;;;;26.38;18.80;;;;;;;27.79;54.85;101898.72;4933738;29;20055;-70
2021/07/22 21:36:47;;;;;;;23.20;18.73;;;;;;;27.73;54.50;101905.81;4936483;29;20521;-69
2021/07/22 21:39:12;;;;;;;24.17;19.02;;;;;;;27.68;54.35;101911.06;4917625;29;20042;-67
2021/07/22 21:41:39;;;;;;;21.85;18.67;;;;;;;27.62;54.33;101898.47;4937274;29;20048;-68
2021/07/22 21:44:05;;;;;;;28.83;18.52;;;;;;;27.57;54.38;101900.16;4947047;28;20499;-64
2021/07/22 21:46:31;;;;;;;19.80;15.80;;;;;;;27.55;54.40;101894.19;4950586;28;20039;-63
2021/07/22 21:48:57;;;;;;;26.75;18.45;;;;;;;27.54;54.47;101890.66;4952340;29;20043;-64
2021/07/22 21:51:25;;;;;;;21.95;15.68;;;;;;;27.54;54.47;101893.34;4929537;29;20804;-63
2021/07/22 21:53:51;;;;;;;29.00;17.25;;;;;;;27.55;54.26;101894.19;4947348;28;20051;-66
2021/07/22 21:56:16;;;;;;;22.27;16.80;;;;;;;27.55;54.35;101889.59;4918753;29;20137;-66
2021/07/22 21:58:44;;;;;;;24.67;17.88;;;;;;;27.55;54.39;101888.78;4952602;29;20162;-64
2021/07/22 22:01:10;;;;;;;26.20;17.58;;;;;;;27.55;54.10;101888.78;4936769;29;20051;-64
2021/07/22 22:03:36;;;;;;;23.52;17.27;;;;;;;27.53;54.27;101880.91;4951131;28;20138;-66
2021/07/22 22:06:01;;;;;;;23.55;18.02;;;;;;;27.54;54.02;101881.75;4952400;29;20665;-66
2021/07/22 22:08:27;;;;;;;24.67;18.45;;;;;;;27.52;54.18;101883.84;4937362;28;20065;-65
2021/07/22 22:10:52;;;;;;;26.25;20.40;;;;;;;27.51;54.17;101877.63;4951632;28;20051;-66
2021/07/22 22:13:18;;;;;;;24.80;19.60;;;;;;;27.51;54.07;101884.91;4934672;29;20377;-64
2021/07/22 22:15:44;;;;;;;24.05;19.77;;;;;;;27.51;54.03;101887.59;4965586;28;20035;-65
2021/07/22 22:18:09;;;;;;;27.83;21.83;;;;;;;27.49;54.25;101881.59;4934263;28;20048;-66
2021/07/22 22:20:36;;;;;;;27.73;21.10;;;;;;;27.48;53.89;101886.16;4952304;28;20167;-67
2021/07/22 22:23:02;;;;;;;26.80;21.13;;;;;;;27.48;53.88;101879.97;4934651;28;20046;-67
2021/07/22 22:25:28;;;;;;;26.08;21.05;;;;;;;27.45;53.74;101879.34;4956068;28;20031;-66
2021/07/22 22:27:53;;;;;;;26.23;20.65;;;;;;;27.44;53.94;101877.69;4934717;29;20035;-66
2021/07/22 22:30:19;;;;;;;26.40;20.55;;;;;;;27.43;54.00;101878.75;4951767;28;20039;-66
2021/07/22 22:32:45;;;;;;;26.15;20.35;;;;;;;27.42;54.06;101885.19;4961328;28;20118;-66
2021/07/22 22:35:10;;;;;;;23.88;17.60;;;;;;;27.41;54.04;101878.13;4938013;29;20054;-66
2021/07/22 22:37:36;;;;;;;24.08;17.95;;;;;;;27.40;54.06;101878.38;4951346;28;20397;-66
2021/07/22 22:40:01;;;;;;;22.35;18.02;;;;;;;27.39;54.36;101882.94;4950293;28;20039;-66
2021/07/22 22:42:27;;;;;;;20.05;16.35;;;;;;;27.39;54.59;101876.72;4952096;28;20031;-66
2021/07/22 22:44:52;;;;;;;19.92;16.25;;;;;;;27.38;54.45;101880.47;4933892;29;20086;-66
2021/07/22 22:47:23;;;;;;;18.90;15.52;;;;;;;27.36;54.75;101878.00;4936119;29;20130;-66
2021/07/22 22:49:52;;;;;;;19.33;15.63;;;;;;;27.36;54.94;101877.16;4951573;28;20082;-66
2021/07/22 22:52:18;;;;;;;21.73;15.88;;;;;;;27.35;54.90;101875.53;4951822;28;20027;-66
2021/07/22 22:54:43;;;;;;;22.58;16.58;;;;;;;27.33;54.78;101864.16;4951042;28;20041;-66
2021/07/22 22:57:10;;;;;;;17.13;14.25;;;;;;;27.33;54.98;101878.44;4951880;28;20039;-66
2021/07/22 22:59:36;;;;;;;20.13;16.05;;;;;;;27.32;54.90;101875.97;4951590;28;20512;-65
2021/07/22 23:02:01;;;;;;;19.55;15.70;;;;;;;27.31;55.11;101877.03;4935227;28;20051;-65
2021/07/22 23:04:27;;;;;;;19.90;15.75;;;;;;;27.29;55.12;101877.22;4951919;28;20045;-65
2021/07/22 23:06:52;;;;;;;23.35;16.50;;;;;;;27.28;55.19;101875.56;4933603;29;20035;-64
2021/07/22 23:09:17;;;;;;;20.08;16.63;;;;;;;27.28;55.26;101875.56;4950948;28;20031;-65
